Terminal Aerodrome Forecast
Issued by NWS Twin Cities, MN

Home | Current Version | Previous Version | Text Only | Print | Product List | Glossary Off
Versions: 1 2 3 4 5 6 7 8 9 10 11 12 13 14 15 16 17 18 19 20 21 22 23 24 25 26 27 28 29 30 31 32

000
FTUS43 KMPX 171501 AAA
TAFMSP
TAF AMD
KMSP 171501Z 1715/1818 15014G21KT 2SM -DZ BR OVC009
     FM171600 15013KT 4SM -DZ BR OVC007
     FM172100 VRB04KT 2SM -RA BR OVC007
     FM180400 34012KT P6SM OVC012=

USA.gov is the U.S. government's official web portal to all federal, state and local government web resources and services.